Time;durP1;ratioP1;P1;durP2;ratioP2;P2;SDS_P1;SDS_P2;PMS_P1;PMS_P2;Temp;Humidity;BMP_temperature;BMP_pressure;BME280_temperature;BME280_humidity;BME280_pressure;Samples;Min_cycle;Max_cycle;Signal;HPM_P1;HPM_P2
2021/01/25 00:02:55;;;;;;;44.80;21.90;;;;;;;-0.93;84.17;96878.52;249566;1155;22966;-72
2021/01/25 00:07:58;;;;;;;55.50;25.30;;;;;;;-0.90;84.66;96874.58;249601;1148;25974;-71
2021/01/25 00:12:59;;;;;;;53.57;25.07;;;;;;;-0.91;84.23;96879.05;249734;1156;22974;-72
2021/01/25 00:18:02;;;;;;;47.53;24.53;;;;;;;-0.94;83.47;96876.92;249594;1148;23097;-73
2021/01/25 00:23:04;;;;;;;44.57;23.23;;;;;;;-0.92;83.78;96871.43;249543;1148;22976;-73
2021/01/25 00:28:07;;;;;;;40.00;20.53;;;;;;;-0.94;83.21;96871.66;249438;1148;22945;-72
2021/01/25 00:33:09;;;;;;;42.60;21.25;;;;;;;-0.97;83.87;96877.45;249295;1155;23000;-70
2021/01/25 00:38:12;;;;;;;37.30;19.45;;;;;;;-0.98;83.46;96870.63;249529;1151;22982;-74
2021/01/25 00:43:14;;;;;;;47.13;21.20;;;;;;;-0.99;83.68;96869.05;249560;1148;23005;-73
2021/01/25 00:48:16;;;;;;;43.10;21.57;;;;;;;-1.02;83.30;96871.39;249248;1151;22987;-73
2021/01/25 00:53:19;;;;;;;34.77;18.97;;;;;;;-1.04;84.15;96880.31;249633;1148;24610;-71
2021/01/25 00:58:21;;;;;;;33.30;18.50;;;;;;;-0.99;84.04;96863.79;249553;1148;23030;-72
2021/01/25 01:03:23;;;;;;;41.30;20.27;;;;;;;-0.99;83.38;96865.61;249779;1152;22968;-73
2021/01/25 01:08:26;;;;;;;38.75;20.55;;;;;;;-1.01;83.35;96863.25;249378;1148;22970;-73
2021/01/25 01:13:28;;;;;;;35.87;19.73;;;;;;;-1.01;83.45;96859.84;249346;1156;22946;-73
2021/01/25 01:18:31;;;;;;;29.50;16.40;;;;;;;-0.99;83.79;96855.09;249501;1148;22945;-70
2021/01/25 01:23:33;;;;;;;31.77;17.20;;;;;;;-0.94;84.29;96849.86;249455;1148;26370;-72
2021/01/25 01:28:35;;;;;;;34.10;18.90;;;;;;;-0.87;83.98;96855.65;249382;1150;23024;-72
2021/01/25 01:33:37;;;;;;;28.80;16.45;;;;;;;-0.80;84.96;96855.40;249599;1156;23016;-72
2021/01/25 01:38:39;;;;;;;31.77;17.83;;;;;;;-0.78;84.38;96858.57;249557;1150;22949;-70
2021/01/25 01:43:40;;;;;;;31.20;15.87;;;;;;;-0.75;84.50;96863.30;249529;1148;22946;-73
2021/01/25 01:48:43;;;;;;;29.27;16.70;;;;;;;-0.74;84.54;96855.15;249522;1149;23363;-70
2021/01/25 01:53:45;;;;;;;33.00;19.10;;;;;;;-0.68;83.89;96855.94;249390;1151;22945;-71
2021/01/25 01:58:47;;;;;;;38.37;21.10;;;;;;;-0.74;83.46;96864.86;249583;1148;23047;-70
2021/01/25 02:03:50;;;;;;;42.63;21.53;;;;;;;-0.81;83.10;96864.33;249609;1156;22970;-73
2021/01/25 02:08:53;;;;;;;41.37;20.23;;;;;;;-0.84;83.87;96867.48;249683;1151;22970;-73
2021/01/25 02:13:55;;;;;;;35.30;17.77;;;;;;;-0.86;83.37;96858.01;249483;1148;23094;-71
2021/01/25 02:19:23;;;;;;;29.70;16.77;;;;;;;-0.85;83.68;96866.70;249686;1150;22975;-72
2021/01/25 02:24:35;;;;;;;35.03;17.37;;;;;;;-0.86;83.58;96870.38;249330;1148;22963;-72
2021/01/25 02:29:42;;;;;;;28.17;14.93;;;;;;;-0.84;83.86;96872.74;249354;1149;22970;-73
2021/01/25 02:34:44;;;;;;;28.73;15.37;;;;;;;-0.83;84.28;96876.95;249897;1148;26401;-72
2021/01/25 02:39:50;;;;;;;31.17;15.37;;;;;;;-0.80;84.41;96871.95;249789;1149;23123;-74
2021/01/25 02:44:54;;;;;;;29.90;15.05;;;;;;;-0.76;83.96;96877.49;249789;1156;22967;-72
2021/01/25 02:49:56;;;;;;;22.77;13.47;;;;;;;-0.81;83.66;96878.28;249803;1147;25986;-72
2021/01/25 02:55:01;;;;;;;25.07;13.57;;;;;;;-0.82;84.50;96879.33;249648;1148;22977;-72
2021/01/25 03:00:06;;;;;;;27.83;14.23;;;;;;;-0.82;84.46;96878.55;249755;1148;22934;-73
2021/01/25 03:05:10;;;;;;;30.10;16.07;;;;;;;-0.96;83.55;96900.06;249566;1148;23073;-72
2021/01/25 03:10:13;;;;;;;29.25;16.70;;;;;;;-1.10;82.73;96906.87;249633;1148;22970;-73
2021/01/25 03:15:20;;;;;;;26.73;14.73;;;;;;;-1.22;83.68;96901.82;249759;1155;23100;-72
2021/01/25 03:20:22;;;;;;;30.40;15.40;;;;;;;-1.20;83.62;96905.00;249755;1147;23319;-73
2021/01/25 03:25:25;;;;;;;27.75;13.95;;;;;;;-1.21;83.46;96903.41;249519;1148;22979;-73
2021/01/25 03:30:27;;;;;;;26.73;14.37;;;;;;;-1.19;84.04;96909.19;249641;1151;23104;-72
2021/01/25 03:35:30;;;;;;;26.25;14.95;;;;;;;-1.16;84.08;96910.51;249680;1156;22967;-72
2021/01/25 03:40:32;;;;;;;28.37;13.90;;;;;;;-1.07;84.20;96914.23;249476;1148;25481;-73
2021/01/25 03:45:34;;;;;;;30.60;15.15;;;;;;;-1.02;83.90;96910.81;249527;1148;23055;-70
2021/01/25 03:50:35;;;;;;;33.20;14.35;;;;;;;-0.89;84.38;96921.63;249646;1151;22973;-73
2021/01/25 03:55:38;;;;;;;32.57;14.70;;;;;;;-0.84;83.89;96917.44;249582;1151;23026;-71
2021/01/25 04:00:40;;;;;;;34.80;15.87;;;;;;;-0.78;83.31;96916.41;249381;1151;22970;-73
2021/01/25 04:05:42;;;;;;;29.03;13.63;;;;;;;-0.78;82.90;96916.41;249495;1156;22948;-73
2021/01/25 04:10:44;;;;;;;29.40;14.23;;;;;;;-0.81;83.13;96915.09;249692;1149;22956;-74
2021/01/25 04:15:46;;;;;;;32.07;17.00;;;;;;;-0.74;83.55;96906.93;249670;1148;23013;-72
2021/01/25 04:20:49;;;;;;;35.57;18.80;;;;;;;-0.65;83.08;96909.86;249644;1148;26031;-73
2021/01/25 04:25:51;;;;;;;40.93;22.23;;;;;;;-0.62;83.70;96914.59;249620;1148;22945;-70
2021/01/25 04:30:53;;;;;;;35.27;17.60;;;;;;;-0.55;83.07;96905.38;249681;1148;25663;-73
2021/01/25 04:35:55;;;;;;;27.40;15.83;;;;;;;-0.51;83.38;96905.66;249597;1148;22949;-73
2021/01/25 04:40:58;;;;;;;21.77;12.07;;;;;;;-0.50;82.97;96911.69;249562;1148;22974;-73
2021/01/25 04:46:00;;;;;;;24.23;12.47;;;;;;;-0.44;82.90;96910.66;249663;1156;23050;-72
2021/01/25 04:51:03;;;;;;;24.40;12.20;;;;;;;-0.50;82.31;96907.23;249609;1148;23076;-71
2021/01/25 04:56:06;;;;;;;26.30;13.87;;;;;;;-0.51;82.76;96916.17;249608;1148;26114;-73
2021/01/25 05:01:08;;;;;;;21.20;12.15;;;;;;;-0.48;82.73;96914.87;249655;1148;22946;-73
2021/01/25 05:06:10;;;;;;;23.90;14.20;;;;;;;-0.41;83.04;96923.28;249604;1155;23180;-71
2021/01/25 05:11:14;;;;;;;24.37;14.53;;;;;;;-0.38;82.48;96920.13;249623;1148;23504;-72
2021/01/25 05:16:19;;;;;;;25.90;16.33;;;;;;;-0.40;81.77;96923.02;249765;1148;22964;-71
2021/01/25 05:21:35;;;;;;;32.77;17.17;;;;;;;-0.37;82.62;96932.23;249868;1148;22938;-71
2021/01/25 05:27:01;;;;;;;24.13;15.07;;;;;;;-0.38;82.96;96928.02;249726;1147;22953;-73
2021/01/25 05:32:08;;;;;;;25.77;14.13;;;;;;;-0.35;83.36;96936.19;249589;1148;22901;-73
2021/01/25 05:37:18;;;;;;;29.20;16.20;;;;;;;-0.36;82.11;96925.93;249725;1148;22935;-70
2021/01/25 05:42:31;;;;;;;28.77;17.43;;;;;;;-0.41;83.11;96939.07;249469;1148;22924;-73
2021/01/25 05:47:47;;;;;;;29.33;16.87;;;;;;;-0.41;82.79;96936.44;249507;1148;23093;-70
2021/01/25 05:52:50;;;;;;;31.27;16.93;;;;;;;-0.46;82.98;96931.97;249710;1148;27190;-71
2021/01/25 05:57:52;;;;;;;39.43;21.17;;;;;;;-0.41;83.86;96936.44;249633;1148;23034;-71
2021/01/25 06:02:55;;;;;;;49.10;24.57;;;;;;;-0.42;83.33;96940.11;249637;1148;23097;-71
2021/01/25 06:08:21;;;;;;;43.00;21.90;;;;;;;-0.39;83.71;96940.39;249654;1156;22938;-73
2021/01/25 06:13:29;;;;;;;36.00;20.30;;;;;;;-0.33;83.62;96943.03;249685;1150;22963;-72
2021/01/25 06:18:32;;;;;;;39.70;20.23;;;;;;;-0.26;84.10;96954.87;249700;1151;23063;-73
2021/01/25 06:23:36;;;;;;;39.43;22.13;;;;;;;-0.22;84.08;96953.30;249670;1151;23036;-73
2021/01/25 06:28:40;;;;;;;38.70;22.73;;;;;;;-0.20;83.90;96968.81;249845;1148;28915;-72
2021/01/25 06:33:46;;;;;;;36.83;20.80;;;;;;;-0.15;84.24;96971.46;249688;1151;23078;-70
2021/01/25 06:38:49;;;;;;;25.87;15.80;;;;;;;-0.10;84.14;96968.03;249598;1151;22973;-73
2021/01/25 06:43:51;;;;;;;25.85;14.75;;;;;;;-0.11;84.09;96971.70;249626;1148;22967;-71
2021/01/25 06:48:54;;;;;;;29.57;16.07;;;;;;;-0.08;83.75;96973.84;249818;1148;23155;-72
2021/01/25 06:54:00;;;;;;;27.40;16.10;;;;;;;-0.05;84.15;96981.20;249977;1148;22942;-71
2021/01/25 06:59:04;;;;;;;29.20;14.77;;;;;;;-0.02;84.69;96978.81;250565;1147;22997;-74
2021/01/25 07:04:14;;;;;;;29.03;17.17;;;;;;;-0.01;84.79;96983.03;250303;1148;22906;-72
2021/01/25 07:09:28;;;;;;;27.03;16.00;;;;;;;0.04;84.64;96984.88;250620;1148;23714;-74
2021/01/25 07:14:32;;;;;;;27.57;16.60;;;;;;;0.08;85.04;96987.78;250367;1147;22953;-72
2021/01/25 07:19:34;;;;;;;30.67;18.27;;;;;;;0.12;84.95;96986.98;250099;1147;23696;-71
2021/01/25 07:24:38;;;;;;;29.95;16.95;;;;;;;0.15;84.67;96990.93;249969;1148;22980;-72
2021/01/25 07:29:44;;;;;;;28.10;17.67;;;;;;;0.23;84.99;96989.63;250316;1148;22945;-73
2021/01/25 07:34:47;;;;;;;28.00;17.10;;;;;;;0.27;84.48;96990.67;250269;1147;25804;-73
2021/01/25 07:39:49;;;;;;;27.53;15.70;;;;;;;0.31;84.57;96986.45;249811;1148;22973;-72
2021/01/25 07:44:51;;;;;;;21.45;13.50;;;;;;;0.31;84.85;96991.73;250091;1147;26092;-73
2021/01/25 07:49:53;;;;;;;27.20;16.35;;;;;;;0.31;84.92;97004.89;250039;1148;22936;-72
2021/01/25 07:54:55;;;;;;;29.20;17.50;;;;;;;0.33;84.85;96998.28;250410;1147;23103;-74
2021/01/25 07:59:58;;;;;;;26.67;16.13;;;;;;;0.38;84.41;97002.78;256660;1147;22908;-75
2021/01/25 08:05:01;;;;;;;24.30;15.05;;;;;;;0.38;85.12;97015.95;250579;1147;26072;-76
2021/01/25 08:10:03;;;;;;;21.93;13.90;;;;;;;0.40;84.49;97016.46;250305;1148;22980;-75
2021/01/25 08:15:11;;;;;;;18.77;11.27;;;;;;;0.40;84.93;97019.09;249753;1149;23543;-76
2021/01/25 08:20:18;;;;;;;21.40;11.10;;;;;;;0.36;84.74;97022.53;250011;1148;26843;-76
2021/01/25 08:25:23;;;;;;;16.37;10.10;;;;;;;0.32;84.30;97024.89;249799;1131;31308;-76
2021/01/25 08:30:39;;;;;;;16.67;10.33;;;;;;;0.32;85.09;97030.97;250513;1132;26336;-75
2021/01/25 08:35:53;;;;;;;17.13;10.17;;;;;;;0.42;84.47;97027.53;250053;1147;24329;-75
2021/01/25 08:40:58;;;;;;;14.73;9.33;;;;;;;0.51;84.69;97033.05;249840;1148;22979;-75
2021/01/25 08:46:10;;;;;;;13.90;9.03;;;;;;;0.56;84.47;97037.52;250562;1147;22906;-75
2021/01/25 08:51:26;;;;;;;14.95;8.80;;;;;;;0.56;84.56;97034.88;249983;1147;22991;-74
2021/01/25 08:56:39;;;;;;;14.20;8.63;;;;;;;0.57;84.58;97033.84;250216;1147;22944;-76
2021/01/25 09:01:44;;;;;;;12.60;7.83;;;;;;;0.59;84.59;97032.52;250051;1147;22937;-76
2021/01/25 09:06:51;;;;;;;13.53;8.70;;;;;;;0.63;84.33;97038.03;250125;1147;23752;-74
2021/01/25 09:11:54;;;;;;;13.13;7.70;;;;;;;0.65;84.49;97047.25;250346;1147;26526;-76
2021/01/25 09:16:56;;;;;;;11.87;7.60;;;;;;;0.68;84.29;97061.75;250174;1147;22951;-76
2021/01/25 09:21:58;;;;;;;13.85;7.80;;;;;;;0.73;84.71;97063.58;250361;1147;22923;-75
2021/01/25 09:27:01;;;;;;;16.43;9.93;;;;;;;0.80;84.22;97064.91;249973;1147;26329;-75
2021/01/25 09:32:04;;;;;;;15.47;8.23;;;;;;;0.84;83.70;97070.44;250203;1147;23059;-75
2021/01/25 09:37:09;;;;;;;15.80;8.70;;;;;;;0.91;83.97;97068.31;250214;1148;22970;-73
2021/01/25 09:42:12;;;;;;;13.75;8.50;;;;;;;0.92;83.05;97064.59;250046;1147;23194;-74
2021/01/25 09:47:14;;;;;;;10.70;7.50;;;;;;;0.91;83.64;97070.14;249837;1148;23049;-73
2021/01/25 09:52:16;;;;;;;12.93;7.80;;;;;;;0.87;83.91;97069.91;249958;1147;23081;-74
2021/01/25 09:57:18;;;;;;;15.77;9.47;;;;;;;0.87;83.65;97063.82;250107;1147;26385;-74
2021/01/25 10:02:20;;;;;;;13.70;8.33;;;;;;;0.93;83.55;97063.55;250387;1145;22970;-73
2021/01/25 10:07:23;;;;;;;12.53;8.27;;;;;;;0.93;83.45;97068.83;250315;1147;23038;-72
2021/01/25 10:12:27;;;;;;;13.80;8.60;;;;;;;0.91;83.65;97065.68;250254;1147;27885;-73
2021/01/25 10:17:31;;;;;;;13.57;8.40;;;;;;;0.91;83.24;97070.14;249989;1147;23241;-73
2021/01/25 10:22:34;;;;;;;14.90;8.77;;;;;;;0.93;83.49;97065.41;250385;1148;23001;-73
2021/01/25 10:27:38;;;;;;;14.23;9.43;;;;;;;0.91;83.46;97073.59;249922;1148;23434;-70
2021/01/25 10:32:40;;;;;;;13.93;8.37;;;;;;;0.88;83.14;97068.05;249943;1147;22945;-73
2021/01/25 10:37:43;;;;;;;13.80;8.47;;;;;;;0.77;83.21;97075.98;250214;1147;25935;-73
2021/01/25 10:42:46;;;;;;;12.65;7.65;;;;;;;0.73;82.81;97089.94;250279;1147;22948;-73
2021/01/25 10:47:48;;;;;;;13.80;8.40;;;;;;;0.75;83.46;97083.35;250458;1148;23091;-73
2021/01/25 10:52:52;;;;;;;13.33;8.23;;;;;;;0.76;82.91;97090.21;250311;1147;26385;-72
2021/01/25 10:57:54;;;;;;;13.10;8.13;;;;;;;0.76;83.44;97100.75;250052;1147;22923;-73
2021/01/25 11:02:56;;;;;;;14.23;8.30;;;;;;;0.73;83.18;97111.84;250358;1148;22898;-74
2021/01/25 11:07:59;;;;;;;16.53;8.57;;;;;;;0.70;83.93;97109.73;250330;1148;24287;-75
2021/01/25 11:13:01;;;;;;;11.83;7.40;;;;;;;0.65;83.63;97105.23;254976;1147;23079;-74
2021/01/25 11:18:04;;;;;;;11.20;6.90;;;;;;;0.66;83.91;97104.19;250445;1147;26085;-74
2021/01/25 11:23:06;;;;;;;11.13;6.83;;;;;;;0.66;83.28;97108.68;255677;1146;22918;-75
2021/01/25 11:28:08;;;;;;;12.87;7.17;;;;;;;0.70;83.01;97098.38;250641;1147;22923;-74
2021/01/25 11:33:10;;;;;;;12.20;7.53;;;;;;;0.74;84.00;97102.07;250817;1147;26401;-74
2021/01/25 11:38:12;;;;;;;11.93;8.03;;;;;;;0.75;83.51;97098.39;250404;1147;23038;-74
2021/01/25 11:43:14;;;;;;;14.20;8.20;;;;;;;0.71;83.53;97103.38;250050;1148;22929;-73
2021/01/25 11:48:18;;;;;;;11.65;7.25;;;;;;;0.71;83.70;97106.02;250026;1148;22929;-73
2021/01/25 11:53:20;;;;;;;12.67;7.07;;;;;;;0.78;84.07;97105.76;250481;1146;23087;-74
2021/01/25 11:58:22;;;;;;;13.13;7.53;;;;;;;0.84;83.71;97118.67;249979;1148;22923;-74
2021/01/25 12:03:24;;;;;;;10.80;6.85;;;;;;;0.89;83.37;97122.36;250063;1147;22913;-71
2021/01/25 12:08:26;;;;;;;14.37;8.53;;;;;;;0.89;83.55;97114.45;250079;1147;22953;-75
2021/01/25 12:13:29;;;;;;;13.37;6.93;;;;;;;0.89;84.05;97125.00;250048;1147;23039;-73
2021/01/25 12:18:31;;;;;;;13.07;8.07;;;;;;;0.89;83.77;97125.00;250339;1148;22958;-74
2021/01/25 12:23:34;;;;;;;12.00;7.83;;;;;;;0.91;83.10;97133.42;250032;1148;22915;-74
2021/01/25 12:28:36;;;;;;;13.47;7.83;;;;;;;0.93;82.89;97126.83;249976;1148;22957;-73
2021/01/25 12:33:38;;;;;;;14.15;9.00;;;;;;;0.97;83.03;97132.38;250120;1148;22945;-74
2021/01/25 12:38:41;;;;;;;14.20;8.60;;;;;;;0.95;83.13;97137.92;250465;1148;23453;-72
2021/01/25 12:43:43;;;;;;;13.53;7.57;;;;;;;0.94;83.60;97138.19;250642;1148;23001;-72
2021/01/25 12:48:46;;;;;;;14.60;8.55;;;;;;;0.96;83.85;97141.33;250336;1148;23326;-73
2021/01/25 12:53:48;;;;;;;13.65;7.90;;;;;;;0.94;83.44;97154.79;250422;1148;22910;-72
2021/01/25 12:58:50;;;;;;;12.73;7.30;;;;;;;0.91;83.07;97146.60;250193;1147;22929;-73
2021/01/25 13:03:53;;;;;;;15.20;9.60;;;;;;;0.86;83.09;97144.77;250139;1148;22957;-75
2021/01/25 13:08:55;;;;;;;14.93;8.17;;;;;;;0.82;83.65;97162.95;250032;1148;22930;-76
2021/01/25 13:13:57;;;;;;;12.20;8.20;;;;;;;0.77;83.11;97170.07;250188;1147;22945;-73
2021/01/25 13:18:59;;;;;;;12.93;7.93;;;;;;;0.73;84.05;97164.55;250145;1147;22950;-74
2021/01/25 13:24:03;;;;;;;16.77;9.63;;;;;;;0.73;84.04;97172.45;250085;1147;23441;-74
2021/01/25 13:29:05;;;;;;;13.55;7.95;;;;;;;0.74;83.98;97184.59;249751;1148;23516;-71
2021/01/25 13:34:07;;;;;;;14.10;7.53;;;;;;;0.73;83.78;97184.83;250177;1147;26471;-73
2021/01/25 13:39:10;;;;;;;12.10;7.67;;;;;;;0.76;84.13;97186.96;249864;1148;23090;-73
2021/01/25 13:44:12;;;;;;;14.25;8.50;;;;;;;0.82;84.36;97191.17;250040;1147;22948;-74
2021/01/25 13:49:14;;;;;;;12.80;8.00;;;;;;;0.89;84.44;97204.09;250110;1148;22971;-73
2021/01/25 13:54:16;;;;;;;12.13;7.67;;;;;;;0.85;83.79;97198.55;250243;1148;23080;-75
2021/01/25 13:59:18;;;;;;;10.80;6.45;;;;;;;0.72;83.85;97205.13;249807;1147;23407;-75
2021/01/25 14:04:20;;;;;;;9.13;5.80;;;;;;;0.55;84.37;97223.83;250013;1148;22952;-75
2021/01/25 14:09:22;;;;;;;10.05;5.60;;;;;;;0.45;84.28;97227.23;250011;1147;22942;-73
2021/01/25 14:14:24;;;;;;;12.20;7.40;;;;;;;0.41;84.15;97222.76;250296;1148;22951;-73
2021/01/25 14:19:26;;;;;;;13.03;7.93;;;;;;;0.40;84.21;97236.97;249819;1147;22964;-74
2021/01/25 14:24:30;;;;;;;12.05;6.95;;;;;;;0.38;84.75;97255.67;249762;1148;22967;-73
2021/01/25 14:29:36;;;;;;;10.03;6.63;;;;;;;0.37;83.88;97256.72;249965;1148;22939;-72
2021/01/25 14:34:40;;;;;;;12.77;7.73;;;;;;;0.36;84.60;97270.16;250238;1148;22973;-74
2021/01/25 14:39:42;;;;;;;10.95;6.75;;;;;;;0.33;83.95;97282.77;250133;1148;22901;-74
2021/01/25 14:44:44;;;;;;;10.83;6.37;;;;;;;0.29;83.59;97294.09;249891;1148;22898;-73
2021/01/25 14:49:46;;;;;;;14.07;8.30;;;;;;;0.28;84.05;97289.87;250002;1148;23508;-78
2021/01/25 14:54:49;;;;;;;10.07;6.30;;;;;;;0.27;84.27;97288.30;249780;1148;22939;-71
2021/01/25 14:59:51;;;;;;;10.37;6.47;;;;;;;0.25;84.38;97308.83;249741;1148;23128;-74
2021/01/25 15:04:53;;;;;;;10.73;6.43;;;;;;;0.26;84.04;97316.47;250261;1148;22953;-71
2021/01/25 15:09:55;;;;;;;11.60;7.03;;;;;;;0.28;83.99;97321.48;251077;1148;22978;-73
2021/01/25 15:14:57;;;;;;;10.77;6.43;;;;;;;0.26;83.92;97328.86;251283;1148;23363;-73
2021/01/25 15:19:58;;;;;;;10.67;6.03;;;;;;;0.29;83.38;97328.34;250312;1147;23863;-71
2021/01/25 15:25:01;;;;;;;14.43;8.53;;;;;;;0.30;83.59;97325.44;249792;1148;23086;-74
2021/01/25 15:30:05;;;;;;;11.70;7.03;;;;;;;0.27;84.13;97336.50;251873;1148;24463;-73
2021/01/25 15:35:09;;;;;;;17.30;9.30;;;;;;;0.25;83.73;97350.97;249747;1148;23440;-73
2021/01/25 15:40:14;;;;;;;17.63;8.97;;;;;;;0.27;84.28;97357.57;249632;1148;22947;-73
2021/01/25 15:45:19;;;;;;;12.97;8.10;;;;;;;0.30;84.19;97361.54;249744;1148;22934;-71
2021/01/25 15:50:22;;;;;;;13.77;7.97;;;;;;;0.23;83.28;97368.88;249432;1148;22944;-73
2021/01/25 15:55:27;;;;;;;15.23;8.73;;;;;;;0.17;83.57;97368.06;249448;1148;23136;-71
2021/01/25 16:00:29;;;;;;;14.77;8.27;;;;;;;0.10;83.84;97364.84;249985;1148;22942;-72
2021/01/25 16:05:32;;;;;;;13.57;7.53;;;;;;;0.09;84.41;97366.69;249635;1148;22945;-73
2021/01/25 16:10:34;;;;;;;12.90;7.83;;;;;;;0.09;84.39;97387.75;249698;1148;22942;-73
2021/01/25 16:15:50;;;;;;;14.63;8.10;;;;;;;0.10;84.21;97386.72;249571;1148;23047;-73
2021/01/25 16:20:52;;;;;;;16.37;9.13;;;;;;;0.11;84.33;97393.58;249508;1148;23351;-72
2021/01/25 16:25:54;;;;;;;20.97;10.03;;;;;;;0.10;84.15;97405.15;249755;1148;23415;-73
2021/01/25 16:30:56;;;;;;;16.97;9.60;;;;;;;0.13;84.31;97414.39;249934;1147;22953;-73
2021/01/25 16:35:58;;;;;;;18.40;10.30;;;;;;;0.09;83.79;97408.82;249506;1148;23142;-73
2021/01/25 16:41:01;;;;;;;22.40;11.67;;;;;;;0.08;84.45;97412.49;249457;1148;23023;-73
2021/01/25 16:46:03;;;;;;;21.40;11.25;;;;;;;0.09;83.66;97414.09;249662;1147;26517;-71
2021/01/25 16:51:05;;;;;;;12.80;7.60;;;;;;;0.13;83.77;97422.28;249554;1148;22934;-72
2021/01/25 16:56:08;;;;;;;14.50;8.20;;;;;;;0.13;83.43;97423.07;249834;1148;23106;-71
2021/01/25 17:01:10;;;;;;;14.37;8.40;;;;;;;0.13;83.41;97425.70;249783;1148;22967;-72
2021/01/25 17:06:12;;;;;;;14.80;7.85;;;;;;;0.13;84.22;97430.97;249604;1148;22951;-72
2021/01/25 17:11:15;;;;;;;15.27;8.83;;;;;;;0.10;83.36;97433.30;249489;1148;22973;-71
2021/01/25 17:16:17;;;;;;;13.40;8.17;;;;;;;0.09;83.73;97431.73;249747;1148;26590;-73
2021/01/25 17:21:19;;;;;;;17.45;9.80;;;;;;;0.06;83.99;97437.52;249463;1147;22942;-70
2021/01/25 17:26:21;;;;;;;23.90;12.20;;;;;;;0.07;84.32;97442.53;249620;1148;22945;-73
2021/01/25 17:31:23;;;;;;;21.87;12.23;;;;;;;0.07;84.05;97441.72;249461;1148;23044;-74
2021/01/25 17:36:27;;;;;;;22.53;12.37;;;;;;;0.02;84.29;97450.38;249351;1148;23010;-74
2021/01/25 17:41:29;;;;;;;21.10;11.10;;;;;;;0.02;84.27;97452.23;249303;1151;22947;-72
2021/01/25 17:46:31;;;;;;;20.20;11.50;;;;;;;0.05;84.55;97451.72;249714;1148;23366;-75
2021/01/25 17:51:34;;;;;;;21.73;10.13;;;;;;;0.06;84.05;97459.37;249763;1148;22945;-74
2021/01/25 17:56:36;;;;;;;18.30;9.57;;;;;;;0.06;84.18;97466.48;249453;1148;22945;-72
2021/01/25 18:01:38;;;;;;;19.67;10.67;;;;;;;0.03;84.10;97467.77;249393;1147;23075;-72
2021/01/25 18:06:42;;;;;;;15.80;8.60;;;;;;;0.02;83.59;97468.81;249573;1148;22942;-73
2021/01/25 18:11:44;;;;;;;17.10;9.43;;;;;;;-0.01;84.56;97474.59;249448;1148;22941;-73
2021/01/25 18:16:47;;;;;;;15.07;9.30;;;;;;;-0.05;83.63;97476.91;249527;1148;22960;-70
2021/01/25 18:21:49;;;;;;;14.60;9.37;;;;;;;-0.07;83.77;97483.47;249579;1148;23049;-74
2021/01/25 18:26:52;;;;;;;18.13;9.87;;;;;;;-0.06;84.27;97485.84;249560;1148;23189;-73
2021/01/25 18:31:54;;;;;;;15.35;9.20;;;;;;;-0.12;84.35;97476.33;249479;1148;22974;-73
2021/01/25 18:36:57;;;;;;;13.07;7.87;;;;;;;-0.16;84.24;97482.36;249531;1148;22961;-73
2021/01/25 18:41:59;;;;;;;17.60;9.63;;;;;;;-0.16;83.80;97484.98;249726;1148;22961;-73
2021/01/25 18:47:02;;;;;;;16.43;9.80;;;;;;;-0.15;83.62;97491.82;249489;1148;25973;-74
2021/01/25 18:52:04;;;;;;;17.90;10.20;;;;;;;-0.15;83.17;97495.27;249650;1148;26877;-73
2021/01/25 18:57:08;;;;;;;17.13;9.70;;;;;;;-0.17;84.15;97494.70;249746;1148;23186;-73
2021/01/25 19:02:10;;;;;;;17.87;10.50;;;;;;;-0.20;83.68;97496.02;249683;1148;23051;-72
2021/01/25 19:07:12;;;;;;;18.17;9.67;;;;;;;-0.23;83.45;97498.34;249561;1148;23424;-73
2021/01/25 19:12:15;;;;;;;20.00;9.63;;;;;;;-0.24;83.62;97502.02;249667;1148;22962;-74
2021/01/25 19:17:18;;;;;;;17.90;8.97;;;;;;;-0.24;83.71;97502.83;249767;1147;23114;-73
2021/01/25 19:22:22;;;;;;;16.47;8.20;;;;;;;-0.25;83.72;97506.50;249835;1148;24545;-72
2021/01/25 19:27:26;;;;;;;19.83;9.70;;;;;;;-0.25;82.92;97508.31;249629;1147;22983;-73
2021/01/25 19:32:28;;;;;;;18.87;10.27;;;;;;;-0.22;83.24;97519.16;249763;1148;22983;-73
2021/01/25 19:37:30;;;;;;;14.40;8.03;;;;;;;-0.20;83.30;97519.71;249818;1148;22967;-74
2021/01/25 19:42:35;;;;;;;17.65;8.40;;;;;;;-0.23;83.30;97522.82;249738;1147;22944;-74
2021/01/25 19:47:37;;;;;;;20.10;10.33;;;;;;;-0.23;82.82;97525.45;249954;1148;22930;-71
2021/01/25 19:52:40;;;;;;;21.03;11.47;;;;;;;-0.20;83.07;97522.34;249725;1148;23018;-73
2021/01/25 19:57:45;;;;;;;17.60;10.00;;;;;;;-0.15;82.91;97531.30;249966;1147;22964;-73
2021/01/25 20:02:47;;;;;;;16.37;8.53;;;;;;;-0.14;82.45;97531.09;249909;1148;22933;-71
2021/01/25 20:07:50;;;;;;;17.20;8.45;;;;;;;-0.16;81.99;97542.91;249766;1147;22964;-73
2021/01/25 20:12:54;;;;;;;19.47;8.33;;;;;;;-0.18;82.09;97543.94;249958;1148;22961;-73
2021/01/25 20:17:57;;;;;;;15.57;8.53;;;;;;;-0.18;81.97;97543.94;250011;1148;22987;-73
2021/01/25 20:23:03;;;;;;;13.63;7.50;;;;;;;-0.18;81.83;97551.83;249923;1148;25973;-73
2021/01/25 20:28:19;;;;;;;18.67;8.83;;;;;;;-0.19;81.61;97563.39;249664;1148;24594;-75
2021/01/25 20:33:24;;;;;;;19.25;9.95;;;;;;;-0.18;81.86;97564.20;249743;1148;26416;-73
2021/01/25 20:38:27;;;;;;;15.75;8.00;;;;;;;-0.20;81.52;97559.20;249749;1147;24548;-73
2021/01/25 20:43:30;;;;;;;13.30;7.77;;;;;;;-0.21;81.97;97576.02;249811;1147;23629;-73
2021/01/25 20:48:32;;;;;;;14.57;7.87;;;;;;;-0.22;81.50;97571.80;249506;1148;22984;-73
2021/01/25 20:53:34;;;;;;;18.67;9.63;;;;;;;-0.28;80.79;97593.84;249635;1148;22995;-74
2021/01/25 20:58:36;;;;;;;23.25;10.60;;;;;;;-0.30;81.12;97598.55;249617;1148;22980;-73
2021/01/25 21:03:39;;;;;;;29.73;12.90;;;;;;;-0.30;81.84;97605.66;249791;1147;23138;-73
2021/01/25 21:08:41;;;;;;;27.63;11.90;;;;;;;-0.29;81.06;97613.30;249556;1147;24542;-72
2021/01/25 21:13:44;;;;;;;22.00;10.83;;;;;;;-0.31;81.42;97612.74;249768;1147;26382;-73
2021/01/25 21:18:46;;;;;;;22.25;9.90;;;;;;;-0.31;81.94;97623.27;249606;1148;22962;-73
2021/01/25 21:23:48;;;;;;;17.40;8.25;;;;;;;-0.29;81.86;97628.31;249603;1148;22964;-72
2021/01/25 21:28:50;;;;;;;19.93;10.47;;;;;;;-0.36;81.58;97617.97;249450;1148;22967;-72
2021/01/25 21:33:52;;;;;;;21.07;10.50;;;;;;;-0.40;82.23;97633.44;249877;1147;23445;-72
2021/01/25 21:38:54;;;;;;;18.73;9.50;;;;;;;-0.44;82.10;97642.07;249768;1148;22954;-73
2021/01/25 21:43:57;;;;;;;17.87;8.87;;;;;;;-0.45;81.59;97646.52;249808;1148;23090;-73
2021/01/25 21:48:59;;;;;;;22.00;10.83;;;;;;;-0.50;81.65;97650.92;249939;1148;22975;-74
2021/01/25 21:54:02;;;;;;;19.55;9.75;;;;;;;-0.58;81.69;97652.94;249816;1148;22916;-73
2021/01/25 21:59:04;;;;;;;19.00;10.67;;;;;;;-0.61;82.26;97665.80;249892;1148;23036;-73
2021/01/25 22:04:06;;;;;;;22.40;11.13;;;;;;;-0.67;81.91;97664.94;249417;1148;22947;-73
2021/01/25 22:09:08;;;;;;;18.37;9.57;;;;;;;-0.71;82.84;97679.61;249882;1148;22923;-71
2021/01/25 22:14:11;;;;;;;20.87;9.33;;;;;;;-0.81;82.45;97679.45;249629;1148;22916;-71
2021/01/25 22:19:14;;;;;;;25.13;12.10;;;;;;;-0.84;82.58;97683.34;249906;1148;23087;-71
2021/01/25 22:24:20;;;;;;;29.33;14.00;;;;;;;-0.84;83.29;97688.61;250022;1148;23064;-70
2021/01/25 22:29:22;;;;;;;25.97;13.10;;;;;;;-0.81;82.76;97688.15;249771;1147;22930;-73
2021/01/25 22:34:24;;;;;;;27.40;13.47;;;;;;;-0.83;82.87;97692.05;249795;1148;22911;-73
2021/01/25 22:39:26;;;;;;;22.13;11.37;;;;;;;-0.90;83.05;97686.95;249470;1148;22929;-72
2021/01/25 22:44:28;;;;;;;23.83;12.57;;;;;;;-0.90;83.96;97702.72;249666;1148;23086;-73
2021/01/25 22:49:30;;;;;;;26.35;13.85;;;;;;;-0.92;83.29;97699.55;249642;1148;22929;-73
2021/01/25 22:54:35;;;;;;;25.65;14.90;;;;;;;-0.94;83.37;97704.23;249604;1148;23094;-72
2021/01/25 22:59:37;;;;;;;33.67;15.00;;;;;;;-0.99;83.36;97704.15;249850;1147;22958;-73
2021/01/25 23:04:43;;;;;;;26.40;12.90;;;;;;;-1.03;84.11;97703.84;249918;1148;22934;-73
2021/01/25 23:09:45;;;;;;;33.93;14.70;;;;;;;-1.06;83.94;97704.33;249900;1147;22937;-74
2021/01/25 23:14:47;;;;;;;28.65;13.05;;;;;;;-1.02;83.87;97704.63;249845;1148;22929;-73